createdAt,value
2018-10-01T09:58:15.060Z,253.12
2018-10-01T09:58:51.302Z,258.75
2018-10-01T09:59:51.285Z,275.62
2018-10-01T10:00:51.292Z,253.12
2018-10-01T10:01:51.263Z,270.00
2018-10-01T10:02:51.268Z,337.50
2018-10-01T10:03:51.304Z,281.25
2018-10-01T10:04:51.341Z,270.00
2018-10-01T10:05:51.223Z,225.00
2018-10-01T10:06:51.234Z,213.75
2018-10-01T10:07:51.206Z,309.38
2018-10-01T10:08:51.200Z,241.88
2018-10-01T10:09:51.176Z,343.12
2018-10-01T10:10:51.176Z,545.62
2018-10-01T10:11:51.163Z,236.25
2018-10-01T10:12:51.143Z,298.12
2018-10-01T10:13:51.136Z,230.62
2018-10-01T10:14:51.119Z,286.88
2018-10-01T10:15:51.112Z,236.25
2018-10-01T10:16:51.223Z,202.50
2018-10-01T10:17:51.105Z,180.00
2018-10-01T10:18:51.085Z,151.88
2018-10-01T10:19:51.070Z,146.25
2018-10-01T10:20:51.055Z,174.38
2018-10-01T10:21:51.053Z,180.00
2018-10-01T10:22:51.030Z,151.88
2018-10-01T10:23:51.021Z,95.62
2018-10-01T10:24:51.020Z,168.75
2018-10-01T10:25:50.998Z,84.38
2018-10-01T10:26:50.999Z,101.25
2018-10-01T10:27:50.976Z,112.50
2018-10-01T10:28:50.964Z,157.50
2018-10-01T10:29:50.997Z,174.38
2018-10-01T10:30:50.945Z,151.88
2018-10-01T10:31:50.948Z,151.88
2018-10-01T10:32:50.921Z,129.38
2018-10-01T10:33:50.909Z,112.50
2018-10-01T10:34:50.900Z,106.88
2018-10-01T10:35:50.888Z,90.00
2018-10-01T10:36:50.886Z,84.38
2018-10-01T10:37:50.863Z,78.75
2018-10-01T10:38:50.853Z,67.50
2018-10-01T10:39:50.842Z,67.50
2018-10-01T10:40:50.861Z,67.50
2018-10-01T10:41:50.900Z,61.88
2018-10-01T10:42:50.810Z,45.00
2018-10-01T10:43:50.797Z,33.75
2018-10-01T10:44:50.788Z,28.12
2018-10-01T10:45:50.776Z,22.50
2018-10-01T10:48:28.718Z,28.12
2018-10-01T10:48:59.461Z,22.50
2018-10-01T10:49:59.483Z,28.12
2018-10-01T10:50:59.435Z,39.38
2018-10-01T10:51:59.438Z,39.38
2018-10-01T10:52:59.429Z,61.88
2018-10-01T10:53:59.401Z,61.88
2018-10-01T10:54:59.390Z,78.75
2018-10-01T10:55:59.428Z,61.88
2018-10-01T10:56:59.394Z,50.62
2018-10-01T10:57:59.367Z,39.38
2018-10-01T10:58:59.350Z,39.38
2018-10-01T10:59:59.334Z,39.38
2018-10-01T11:00:59.322Z,45.00
2018-10-01T11:01:59.362Z,56.25
2018-10-01T11:02:59.310Z,56.25
2018-10-01T11:03:59.293Z,50.62
2018-10-01T11:04:59.282Z,45.00
2018-10-01T11:05:59.268Z,50.62
2018-10-01T11:06:59.256Z,61.88
2018-10-01T11:07:59.296Z,61.88
2018-10-01T11:08:59.232Z,67.50
2018-10-01T11:09:59.223Z,61.88
2018-10-01T11:10:59.207Z,67.50
2018-10-01T11:11:59.203Z,61.88
2018-10-01T11:12:59.184Z,67.50
2018-10-01T11:13:59.395Z,67.50
2018-10-01T11:14:59.256Z,61.88
2018-10-01T11:15:59.150Z,61.88
2018-10-01T11:16:59.139Z,90.00
2018-10-01T11:17:59.246Z,106.88
2018-10-01T11:18:59.291Z,118.12
2018-10-01T11:19:59.156Z,101.25
2018-10-01T11:20:59.173Z,118.12
2018-10-01T11:21:59.179Z,135.00
2018-10-01T11:22:59.068Z,163.12
2018-10-01T11:23:59.068Z,180.00
2018-10-01T11:24:59.048Z,180.00
2018-10-01T11:25:59.038Z,163.12
2018-10-01T11:26:59.073Z,180.00
2018-10-01T11:27:59.012Z,196.88
2018-10-01T11:28:59.038Z,168.75
2018-10-01T11:29:58.990Z,146.25
2018-10-01T11:30:58.979Z,118.12
2018-10-01T11:31:59.023Z,90.00
2018-10-01T11:32:58.962Z,78.75
2018-10-01T11:33:58.956Z,73.12
2018-10-01T11:34:59.122Z,84.38
2018-10-01T11:35:58.923Z,73.12
2018-10-01T11:36:58.910Z,61.88
2018-10-01T11:37:58.901Z,73.12
2018-10-01T11:38:58.911Z,73.12
2018-10-01T11:39:58.877Z,90.00
2018-10-01T11:40:58.865Z,78.75
2018-10-01T11:41:58.855Z,78.75
2018-10-01T11:42:58.849Z,73.12
2018-10-01T11:43:58.843Z,56.25
2018-10-01T11:44:58.849Z,45.00
2018-10-01T11:45:58.809Z,45.00
2018-10-01T11:46:58.802Z,50.62
2018-10-01T11:47:58.787Z,56.25
2018-10-01T11:48:58.785Z,67.50
2018-10-01T11:49:58.765Z,78.75
2018-10-01T11:50:58.819Z,90.00
2018-10-01T11:51:58.746Z,90.00
2018-10-01T11:52:58.729Z,106.88
2018-10-01T11:53:58.731Z,78.75
2018-10-01T11:54:58.737Z,78.75
2018-10-01T11:55:58.697Z,78.75
2018-10-01T11:56:58.704Z,90.00
2018-10-01T11:57:58.674Z,90.00
2018-10-01T11:58:58.675Z,95.62
2018-10-01T11:59:58.651Z,84.38
2018-10-01T12:00:58.639Z,84.38
2018-10-01T12:01:58.630Z,90.00
2018-10-01T12:02:58.633Z,106.88
2018-10-01T12:03:58.742Z,123.75
2018-10-01T12:04:58.598Z,123.75
2018-10-01T12:05:58.587Z,146.25
2018-10-01T12:06:58.575Z,106.88
2018-10-01T12:07:58.559Z,90.00
2018-10-01T12:08:58.588Z,78.75
2018-10-01T12:09:58.570Z,73.12
2018-10-01T12:10:58.527Z,78.75
2018-10-01T12:11:58.515Z,73.12
2018-10-01T12:12:58.507Z,67.50
2018-10-01T12:13:58.507Z,56.25
2018-10-01T12:14:58.528Z,61.88
2018-10-01T12:15:58.659Z,61.88
2018-10-01T12:16:58.460Z,73.12
2018-10-01T12:17:58.494Z,84.38
2018-10-01T12:18:58.450Z,90.00
2018-10-01T12:19:58.424Z,106.88
2018-10-01T12:20:58.454Z,151.88
2018-10-01T12:21:58.469Z,196.88
2018-10-01T12:22:58.390Z,258.75
2018-10-01T12:23:58.391Z,343.12
2018-10-01T12:24:58.434Z,292.50
2018-10-01T12:25:58.358Z,185.62
2018-10-01T12:26:58.350Z,157.50
2018-10-01T12:27:58.334Z,146.25
2018-10-01T12:28:58.381Z,118.12
2018-10-01T12:29:58.312Z,101.25
2018-10-01T12:30:58.300Z,135.00
2018-10-01T12:31:58.289Z,140.62
2018-10-01T12:32:58.300Z,140.62
2018-10-01T12:33:58.278Z,146.25
2018-10-01T12:34:58.323Z,196.88
2018-10-01T12:35:58.256Z,168.75
2018-10-01T12:36:58.233Z,112.50
2018-10-01T12:37:58.224Z,241.88
2018-10-01T12:38:58.259Z,382.50
2018-10-01T12:39:58.211Z,309.38
2018-10-01T12:40:58.187Z,511.88
2018-10-01T12:41:58.177Z,545.62
2018-10-01T12:42:58.281Z,601.88
2018-10-01T12:43:58.168Z,646.88
2018-10-01T12:44:58.210Z,427.50
2018-10-01T12:45:58.129Z,225.00
2018-10-01T12:46:58.121Z,174.38
2018-10-01T12:47:58.107Z,157.50
2018-10-01T12:48:58.115Z,168.75
2018-10-01T12:49:58.090Z,112.50
2018-10-01T12:50:58.094Z,112.50
2018-10-01T12:51:58.073Z,118.12
2018-10-01T12:52:58.053Z,129.38
2018-10-01T12:53:58.039Z,129.38
2018-10-01T12:54:58.051Z,174.38
2018-10-01T12:55:58.071Z,174.38
2018-10-01T12:56:58.045Z,202.50
2018-10-01T12:57:57.997Z,213.75
2018-10-01T12:58:57.987Z,168.75
2018-10-01T12:59:57.985Z,135.00
2018-10-01T13:00:57.961Z,129.38
2018-10-01T13:01:57.951Z,157.50
2018-10-01T13:02:57.940Z,168.75
2018-10-01T13:03:57.930Z,180.00
2018-10-01T13:04:57.941Z,123.75
2018-10-01T13:05:57.908Z,140.62
2018-10-01T13:06:57.896Z,163.12
2018-10-01T13:07:57.885Z,196.88
2018-10-01T13:08:57.871Z,191.25
2018-10-01T13:09:57.868Z,157.50
2018-10-01T13:10:57.848Z,191.25
2018-10-01T13:11:57.881Z,163.12
2018-10-01T13:12:57.828Z,157.50
2018-10-01T13:13:57.818Z,191.25
2018-10-01T13:14:57.812Z,202.50
2018-10-01T13:15:57.789Z,180.00
2018-10-01T13:16:57.778Z,168.75
2018-10-01T13:17:57.774Z,151.88
2018-10-01T13:18:57.772Z,135.00
2018-10-01T13:19:57.756Z,129.38
2018-10-01T13:20:57.734Z,146.25
2018-10-01T13:21:57.720Z,146.25
2018-10-01T13:22:57.712Z,129.38
2018-10-01T13:23:57.715Z,118.12
2018-10-01T13:24:57.780Z,146.25
2018-10-01T13:25:57.676Z,146.25
2018-10-01T13:26:57.669Z,151.88
2018-10-01T13:27:57.655Z,163.12
2018-10-01T13:28:57.647Z,157.50
2018-10-01T13:29:57.660Z,146.25
2018-10-01T13:30:57.620Z,157.50
2018-10-01T13:31:57.648Z,185.62
2018-10-01T13:32:57.603Z,174.38
2018-10-01T13:33:57.591Z,163.12
2018-10-01T13:34:57.588Z,163.12
2018-10-01T13:35:57.629Z,163.12
2018-10-01T13:36:57.553Z,185.62
2018-10-01T13:37:57.543Z,157.50
2018-10-01T13:38:57.532Z,140.62
2018-10-01T13:39:57.529Z,157.50
2018-10-01T13:40:57.511Z,140.62
2018-10-01T13:41:57.511Z,151.88
2018-10-01T13:42:57.488Z,151.88
2018-10-01T13:43:57.475Z,135.00
2018-10-01T13:46:27.159Z,168.75
